sensor_id;sensor_type;location;lat;lon;timestamp;pressure;altitude;pressure_sealevel;temperature;humidity
13765;BME280;6953;48.810;9.204;2023-04-01T00:01:56;97308.09;;;10.21;96.74
13765;BME280;6953;48.810;9.204;2023-04-01T00:04:22;97156.38;;;9.36;96.40
13765;BME280;6953;48.810;9.204;2023-04-01T00:06:47;97449.94;;;10.99;96.29
13765;BME280;6953;48.810;9.204;2023-04-01T00:09:13;97425.03;;;11.04;96.09
13765;BME280;6953;48.810;9.204;2023-04-01T00:11:39;97431.00;;;11.06;95.81
13765;BME280;6953;48.810;9.204;2023-04-01T00:14:05;97415.63;;;11.13;94.85
13765;BME280;6953;48.810;9.204;2023-04-01T00:16:30;97405.41;;;11.32;94.55
13765;BME280;6953;48.810;9.204;2023-04-01T00:18:56;97277.38;;;10.57;93.95
13765;BME280;6953;48.810;9.204;2023-04-01T00:21:22;97412.22;;;11.45;94.23
13765;BME280;6953;48.810;9.204;2023-04-01T00:23:48;97418.66;;;11.52;93.83
13765;BME280;6953;48.810;9.204;2023-04-01T00:26:14;97335.66;;;11.06;93.25
13765;BME280;6953;48.810;9.204;2023-04-01T00:28:42;97414.50;;;11.49;93.55
13765;BME280;6953;48.810;9.204;2023-04-01T00:31:09;97420.47;;;11.40;94.13
13765;BME280;6953;48.810;9.204;2023-04-01T00:33:35;97395.84;;;11.20;94.61
13765;BME280;6953;48.810;9.204;2023-04-01T00:36:11;97415.91;;;11.21;95.34
13765;BME280;6953;48.810;9.204;2023-04-01T00:38:37;97397.84;;;11.05;95.32
13765;BME280;6953;48.810;9.204;2023-04-01T00:41:03;97417.41;;;11.12;95.53
13765;BME280;6953;48.810;9.204;2023-04-01T00:43:28;97429.03;;;10.97;95.71
13765;BME280;6953;48.810;9.204;2023-04-01T00:45:55;97159.31;;;9.55;95.89
13765;BME280;6953;48.810;9.204;2023-04-01T00:48:27;97420.16;;;11.22;95.51
13765;BME280;6953;48.810;9.204;2023-04-01T00:51:06;97411.47;;;11.32;94.72
13765;BME280;6953;48.810;9.204;2023-04-01T00:53:34;97421.06;;;11.44;93.92
13765;BME280;6953;48.810;9.204;2023-04-01T00:56:05;97440.13;;;11.24;94.70
13765;BME280;6953;48.810;9.204;2023-04-01T00:58:35;97410.00;;;11.06;96.55
13765;BME280;6953;48.810;9.204;2023-04-01T01:01:02;97439.19;;;11.02;96.98
13765;BME280;6953;48.810;9.204;2023-04-01T01:03:28;97288.22;;;10.18;97.83
13765;BME280;6953;48.810;9.204;2023-04-01T01:19:58;97414.44;;;11.17;98.26
13765;BME280;6953;48.810;9.204;2023-04-01T01:23:00;97414.47;;;11.28;98.20
13765;BME280;6953;48.810;9.204;2023-04-01T01:31:24;97421.09;;;11.55;96.92
13765;BME280;6953;48.810;9.204;2023-04-01T01:34:50;97153.22;;;10.02;96.70
13765;BME280;6953;48.810;9.204;2023-04-01T01:36:53;97420.63;;;11.61;96.75
13765;BME280;6953;48.810;9.204;2023-04-01T01:39:19;97331.38;;;10.94;97.05
13765;BME280;6953;48.810;9.204;2023-04-01T01:41:47;97382.38;;;11.24;97.87
13765;BME280;6953;48.810;9.204;2023-04-01T01:44:15;97244.50;;;10.30;98.32
13765;BME280;6953;48.810;9.204;2023-04-01T01:46:42;97414.44;;;11.17;99.54
13765;BME280;6953;48.810;9.204;2023-04-01T01:49:11;97424.06;;;11.05;100.00
13765;BME280;6953;48.810;9.204;2023-04-01T01:51:38;97423.94;;;10.96;100.00
13765;BME280;6953;48.810;9.204;2023-04-01T01:54:05;97462.19;;;10.87;100.00
13765;BME280;6953;48.810;9.204;2023-04-01T01:56:31;97424.94;;;10.82;100.00
13765;BME280;6953;48.810;9.204;2023-04-01T01:59:03;97409.13;;;10.71;100.00
13765;BME280;6953;48.810;9.204;2023-04-01T02:01:32;97419.88;;;10.68;100.00
13765;BME280;6953;48.810;9.204;2023-04-01T02:04:01;97421.84;;;10.54;100.00
13765;BME280;6953;48.810;9.204;2023-04-01T02:06:29;97416.38;;;10.57;100.00
13765;BME280;6953;48.810;9.204;2023-04-01T02:08:59;97191.97;;;9.27;100.00
13765;BME280;6953;48.810;9.204;2023-04-01T02:11:33;97214.03;;;9.35;100.00
13765;BME280;6953;48.810;9.204;2023-04-01T02:14:08;97448.19;;;10.40;100.00
13765;BME280;6953;48.810;9.204;2023-04-01T02:17:02;97458.06;;;10.36;100.00
13765;BME280;6953;48.810;9.204;2023-04-01T02:19:36;97411.22;;;10.32;100.00
13765;BME280;6953;48.810;9.204;2023-04-01T02:22:06;97342.19;;;9.85;100.00
13765;BME280;6953;48.810;9.204;2023-04-01T02:24:35;97425.66;;;10.37;100.00
13765;BME280;6953;48.810;9.204;2023-04-01T02:27:01;97446.84;;;10.34;100.00
13765;BME280;6953;48.810;9.204;2023-04-01T02:29:27;97407.56;;;10.22;100.00
13765;BME280;6953;48.810;9.204;2023-04-01T02:31:53;97429.13;;;10.38;100.00
13765;BME280;6953;48.810;9.204;2023-04-01T02:34:21;97455.34;;;10.38;100.00
13765;BME280;6953;48.810;9.204;2023-04-01T02:36:48;97422.22;;;10.37;100.00
13765;BME280;6953;48.810;9.204;2023-04-01T02:39:15;97387.72;;;10.07;100.00
13765;BME280;6953;48.810;9.204;2023-04-01T02:41:45;97275.31;;;9.20;100.00
13765;BME280;6953;48.810;9.204;2023-04-01T02:44:13;97169.53;;;8.51;100.00
13765;BME280;6953;48.810;9.204;2023-04-01T02:46:38;97399.41;;;9.78;100.00
13765;BME280;6953;48.810;9.204;2023-04-01T02:49:04;97352.09;;;9.44;100.00
13765;BME280;6953;48.810;9.204;2023-04-01T02:51:29;97444.22;;;9.74;100.00
13765;BME280;6953;48.810;9.204;2023-04-01T02:53:55;97398.69;;;9.51;100.00
13765;BME280;6953;48.810;9.204;2023-04-01T02:56:20;97421.84;;;9.57;100.00
13765;BME280;6953;48.810;9.204;2023-04-01T02:58:46;97410.84;;;9.52;100.00
13765;BME280;6953;48.810;9.204;2023-04-01T03:01:11;97386.97;;;9.44;100.00
13765;BME280;6953;48.810;9.204;2023-04-01T03:03:37;97194.38;;;8.31;100.00
13765;BME280;6953;48.810;9.204;2023-04-01T03:06:07;97415.00;;;9.55;100.00
13765;BME280;6953;48.810;9.204;2023-04-01T03:08:33;97281.59;;;8.80;100.00
13765;BME280;6953;48.810;9.204;2023-04-01T03:10:58;97404.94;;;9.61;100.00
13765;BME280;6953;48.810;9.204;2023-04-01T03:13:25;97281.59;;;8.93;100.00
13765;BME280;6953;48.810;9.204;2023-04-01T03:15:51;97427.97;;;9.81;100.00
13765;BME280;6953;48.810;9.204;2023-04-01T03:18:16;97213.41;;;8.46;100.00
13765;BME280;6953;48.810;9.204;2023-04-01T03:20:41;97384.75;;;9.51;100.00
13765;BME280;6953;48.810;9.204;2023-04-01T03:23:08;97425.69;;;9.64;100.00
13765;BME280;6953;48.810;9.204;2023-04-01T03:25:34;97149.19;;;7.92;100.00
13765;BME280;6953;48.810;9.204;2023-04-01T03:27:59;97419.97;;;9.47;100.00
13765;BME280;6953;48.810;9.204;2023-04-01T03:30:25;97425.59;;;9.41;100.00
13765;BME280;6953;48.810;9.204;2023-04-01T03:32:51;97445.91;;;9.37;100.00
13765;BME280;6953;48.810;9.204;2023-04-01T03:35:17;97170.28;;;7.89;100.00
13765;BME280;6953;48.810;9.204;2023-04-01T03:37:42;97429.44;;;9.48;100.00
13765;BME280;6953;48.810;9.204;2023-04-01T03:40:08;97432.72;;;9.51;100.00
13765;BME280;6953;48.810;9.204;2023-04-01T03:42:34;97428.00;;;9.44;100.00
13765;BME280;6953;48.810;9.204;2023-04-01T03:45:00;97422.53;;;9.59;100.00
13765;BME280;6953;48.810;9.204;2023-04-01T03:47:26;97416.59;;;9.45;100.00
13765;BME280;6953;48.810;9.204;2023-04-01T03:49:51;97282.53;;;8.79;100.00
13765;BME280;6953;48.810;9.204;2023-04-01T03:52:16;97424.13;;;9.62;100.00
13765;BME280;6953;48.810;9.204;2023-04-01T03:54:41;97389.78;;;9.41;100.00
13765;BME280;6953;48.810;9.204;2023-04-01T03:57:07;97179.75;;;8.17;100.00
13765;BME280;6953;48.810;9.204;2023-04-01T03:59:32;97075.13;;;7.56;100.00
13765;BME280;6953;48.810;9.204;2023-04-01T04:01:58;97416.38;;;9.48;100.00
13765;BME280;6953;48.810;9.204;2023-04-01T04:04:23;97321.97;;;8.89;100.00
13765;BME280;6953;48.810;9.204;2023-04-01T04:06:48;97394.50;;;9.36;100.00
13765;BME280;6953;48.810;9.204;2023-04-01T04:09:14;97373.88;;;9.32;100.00
13765;BME280;6953;48.810;9.204;2023-04-01T04:11:39;97407.06;;;9.56;100.00
13765;BME280;6953;48.810;9.204;2023-04-01T04:14:05;97403.06;;;9.63;100.00
13765;BME280;6953;48.810;9.204;2023-04-01T04:16:30;97403.66;;;9.79;100.00
13765;BME280;6953;48.810;9.204;2023-04-01T04:18:55;97406.38;;;10.03;100.00
13765;BME280;6953;48.810;9.204;2023-04-01T04:21:21;97360.69;;;9.94;100.00
13765;BME280;6953;48.810;9.204;2023-04-01T04:23:46;97369.03;;;10.12;100.00
13765;BME280;6953;48.810;9.204;2023-04-01T04:26:13;97307.22;;;9.73;99.58
13765;BME280;6953;48.810;9.204;2023-04-01T04:28:39;97393.03;;;10.18;99.63
13765;BME280;6953;48.810;9.204;2023-04-01T04:31:05;97324.31;;;9.66;100.00
13765;BME280;6953;48.810;9.204;2023-04-01T04:33:32;97416.00;;;10.02;99.98
13765;BME280;6953;48.810;9.204;2023-04-01T04:35:58;97431.31;;;9.96;100.00
13765;BME280;6953;48.810;9.204;2023-04-01T04:38:24;97207.03;;;8.75;99.72
13765;BME280;6953;48.810;9.204;2023-04-01T04:40:50;97134.50;;;8.28;100.00
13765;BME280;6953;48.810;9.204;2023-04-01T04:43:16;97382.00;;;9.77;100.00
13765;BME280;6953;48.810;9.204;2023-04-01T04:45:42;97396.00;;;9.89;99.85
13765;BME280;6953;48.810;9.204;2023-04-01T04:48:09;97392.56;;;9.88;99.44
13765;BME280;6953;48.810;9.204;2023-04-01T04:50:35;97114.34;;;8.18;99.47
13765;BME280;6953;48.810;9.204;2023-04-01T04:53:00;97405.25;;;9.82;99.74
13765;BME280;6953;48.810;9.204;2023-04-01T04:55:26;97400.09;;;9.80;99.80
13765;BME280;6953;48.810;9.204;2023-04-01T04:57:51;97131.47;;;8.22;99.57
13765;BME280;6953;48.810;9.204;2023-04-01T05:00:17;97394.44;;;9.86;99.86
13765;BME280;6953;48.810;9.204;2023-04-01T05:02:42;97397.66;;;9.90;99.86
13765;BME280;6953;48.810;9.204;2023-04-01T05:05:08;97156.75;;;8.46;99.63
13765;BME280;6953;48.810;9.204;2023-04-01T05:07:35;97118.19;;;8.13;100.00
13765;BME280;6953;48.810;9.204;2023-04-01T05:10:01;97438.03;;;9.75;100.00
13765;BME280;6953;48.810;9.204;2023-04-01T05:12:26;97317.69;;;9.25;100.00
13765;BME280;6953;48.810;9.204;2023-04-01T05:14:52;97371.66;;;9.63;100.00
13765;BME280;6953;48.810;9.204;2023-04-01T05:17:17;97390.88;;;9.87;100.00
13765;BME280;6953;48.810;9.204;2023-04-01T05:19:42;97395.06;;;9.90;100.00
13765;BME280;6953;48.810;9.204;2023-04-01T05:22:08;97367.66;;;9.70;100.00
13765;BME280;6953;48.810;9.204;2023-04-01T05:24:33;97383.88;;;9.88;100.00
13765;BME280;6953;48.810;9.204;2023-04-01T05:26:58;97320.38;;;9.48;100.00
13765;BME280;6953;48.810;9.204;2023-04-01T05:29:25;97383.53;;;10.05;100.00
13765;BME280;6953;48.810;9.204;2023-04-01T05:31:51;97379.75;;;10.09;100.00
13765;BME280;6953;48.810;9.204;2023-04-01T05:34:16;97404.97;;;10.10;99.91
13765;BME280;6953;48.810;9.204;2023-04-01T05:36:43;97362.59;;;10.28;99.62
13765;BME280;6953;48.810;9.204;2023-04-01T05:39:08;97382.59;;;10.52;98.73
13765;BME280;6953;48.810;9.204;2023-04-01T05:41:38;97110.41;;;9.09;97.53
13765;BME280;6953;48.810;9.204;2023-04-01T05:44:04;97299.22;;;10.34;97.39
13765;BME280;6953;48.810;9.204;2023-04-01T05:46:30;97379.28;;;10.85;97.25
13765;BME280;6953;48.810;9.204;2023-04-01T05:48:55;97371.41;;;10.85;97.41
13765;BME280;6953;48.810;9.204;2023-04-01T05:51:20;97365.47;;;10.94;96.67
13765;BME280;6953;48.810;9.204;2023-04-01T05:53:46;97356.66;;;11.06;95.54
13765;BME280;6953;48.810;9.204;2023-04-01T05:56:12;97360.88;;;11.19;94.70
13765;BME280;6953;48.810;9.204;2023-04-01T05:58:37;97330.91;;;11.11;94.14
13765;BME280;6953;48.810;9.204;2023-04-01T06:01:05;97386.06;;;11.43;93.45
13765;BME280;6953;48.810;9.204;2023-04-01T06:03:32;97300.25;;;11.22;92.57
13765;BME280;6953;48.810;9.204;2023-04-01T06:05:57;97344.94;;;11.66;90.88
13765;BME280;6953;48.810;9.204;2023-04-01T06:08:23;97353.16;;;11.94;89.39
13765;BME280;6953;48.810;9.204;2023-04-01T06:11:04;97344.19;;;12.08;88.48
13765;BME280;6953;48.810;9.204;2023-04-01T06:30:35;97289.44;;;12.64;79.24
13765;BME280;6953;48.810;9.204;2023-04-01T06:54:48;97344.81;;;13.15;78.04
13765;BME280;6953;48.810;9.204;2023-04-01T06:57:22;97352.28;;;13.30;77.32
13765;BME280;6953;48.810;9.204;2023-04-01T06:59:51;97278.75;;;12.97;77.03
13765;BME280;6953;48.810;9.204;2023-04-01T07:02:24;97350.50;;;13.60;76.66
13765;BME280;6953;48.810;9.204;2023-04-01T07:04:55;97360.16;;;13.80;76.43
13765;BME280;6953;48.810;9.204;2023-04-01T07:07:59;97142.56;;;12.49;75.71
13765;BME280;6953;48.810;9.204;2023-04-01T07:12:58;97351.69;;;13.86;75.44
13765;BME280;6953;48.810;9.204;2023-04-01T07:15:33;97302.75;;;13.54;75.09
13765;BME280;6953;48.810;9.204;2023-04-01T07:18:21;97367.50;;;13.86;75.48
13765;BME280;6953;48.810;9.204;2023-04-01T07:20:49;97169.03;;;12.77;75.21
13765;BME280;6953;48.810;9.204;2023-04-01T07:23:22;97205.09;;;12.86;75.97
13765;BME280;6953;48.810;9.204;2023-04-01T07:25:53;97371.63;;;13.70;76.14
13765;BME280;6953;48.810;9.204;2023-04-01T07:28:20;97351.16;;;13.53;76.37
13765;BME280;6953;48.810;9.204;2023-04-01T07:33:46;97363.72;;;13.49;76.91
13765;BME280;6953;48.810;9.204;2023-04-01T07:36:35;97391.00;;;13.59;77.11
13765;BME280;6953;48.810;9.204;2023-04-01T07:39:45;97391.66;;;13.52;76.96
13765;BME280;6953;48.810;9.204;2023-04-01T07:48:16;97383.09;;;13.39;77.63
13765;BME280;6953;48.810;9.204;2023-04-01T07:53:27;97214.06;;;12.54;77.91
13765;BME280;6953;48.810;9.204;2023-04-01T07:56:12;97355.75;;;13.60;77.13
13765;BME280;6953;48.810;9.204;2023-04-01T07:58:59;97373.66;;;13.96;76.37
13765;BME280;6953;48.810;9.204;2023-04-01T08:01:49;97409.88;;;14.15;75.03
13765;BME280;6953;48.810;9.204;2023-04-01T08:07:18;97303.44;;;13.95;73.74
13765;BME280;6953;48.810;9.204;2023-04-01T08:09:51;97316.91;;;14.02;73.68
13765;BME280;6953;48.810;9.204;2023-04-01T08:12:35;97385.06;;;14.36;73.71
13765;BME280;6953;48.810;9.204;2023-04-01T08:20:36;97372.84;;;14.45;73.64
13765;BME280;6953;48.810;9.204;2023-04-01T08:25:53;97383.31;;;14.56;72.97
13765;BME280;6953;48.810;9.204;2023-04-01T08:28:30;97295.06;;;14.20;72.69
13765;BME280;6953;48.810;9.204;2023-04-01T08:31:02;97343.69;;;14.46;72.80
13765;BME280;6953;48.810;9.204;2023-04-01T08:33:31;97414.94;;;14.46;74.32
13765;BME280;6953;48.810;9.204;2023-04-01T08:36:05;97389.78;;;14.42;74.73
13765;BME280;6953;48.810;9.204;2023-04-01T08:38:43;97407.78;;;13.98;76.82
13765;BME280;6953;48.810;9.204;2023-04-01T08:44:23;97390.09;;;12.77;84.78
13765;BME280;6953;48.810;9.204;2023-04-01T08:52:22;97418.84;;;12.05;91.34
13765;BME280;6953;48.810;9.204;2023-04-01T08:58:02;97131.78;;;10.08;95.89
13765;BME280;6953;48.810;9.204;2023-04-01T09:00:33;97418.25;;;11.58;97.48
13765;BME280;6953;48.810;9.204;2023-04-01T09:03:36;97400.47;;;11.61;97.43
13765;BME280;6953;48.810;9.204;2023-04-01T09:09:07;97134.97;;;10.00;97.79
13765;BME280;6953;48.810;9.204;2023-04-01T09:22:37;97396.88;;;11.95;95.94
13765;BME280;6953;48.810;9.204;2023-04-01T09:28:10;97408.81;;;12.10;94.87
13765;BME280;6953;48.810;9.204;2023-04-01T09:31:21;97437.84;;;12.31;93.36
13765;BME280;6953;48.810;9.204;2023-04-01T09:34:09;97419.81;;;12.57;92.17
13765;BME280;6953;48.810;9.204;2023-04-01T09:42:06;97412.50;;;13.94;82.29
13765;BME280;6953;48.810;9.204;2023-04-01T09:53:10;97422.00;;;12.95;85.48
13765;BME280;6953;48.810;9.204;2023-04-01T09:59:31;97420.28;;;12.73;86.16
13765;BME280;6953;48.810;9.204;2023-04-01T10:16:18;97423.59;;;14.18;75.75
13765;BME280;6953;48.810;9.204;2023-04-01T10:40:43;97443.88;;;14.76;72.27
13765;BME280;6953;48.810;9.204;2023-04-01T10:43:52;97413.50;;;14.03;74.18
13765;BME280;6953;48.810;9.204;2023-04-01T10:52:39;97431.91;;;14.62;71.29
13765;BME280;6953;48.810;9.204;2023-04-01T11:18:02;97287.44;;;14.64;67.93
13765;BME280;6953;48.810;9.204;2023-04-01T11:42:38;97451.97;;;19.32;51.68
13765;BME280;6953;48.810;9.204;2023-04-01T11:45:43;97229.22;;;19.18;48.31
13765;BME280;6953;48.810;9.204;2023-04-01T11:49:13;97407.41;;;20.82;46.44
13765;BME280;6953;48.810;9.204;2023-04-01T11:54:19;97397.13;;;19.55;47.54
13765;BME280;6953;48.810;9.204;2023-04-01T11:59:37;97286.56;;;18.07;51.55
13765;BME280;6953;48.810;9.204;2023-04-01T12:04:58;97469.94;;;17.71;56.92
13765;BME280;6953;48.810;9.204;2023-04-01T12:07:53;97453.53;;;17.33;57.71
13765;BME280;6953;48.810;9.204;2023-04-01T12:10:28;97455.41;;;16.88;59.25
13765;BME280;6953;48.810;9.204;2023-04-01T12:13:11;97228.91;;;15.24;60.99
13765;BME280;6953;48.810;9.204;2023-04-01T12:21:35;97427.94;;;14.96;68.51
13765;BME280;6953;48.810;9.204;2023-04-01T12:40:25;97407.53;;;14.01;74.70
13765;BME280;6953;48.810;9.204;2023-04-01T12:43:10;97317.34;;;14.07;72.13
13765;BME280;6953;48.810;9.204;2023-04-01T12:49:01;97509.00;;;16.46;65.82
13765;BME280;6953;48.810;9.204;2023-04-01T12:54:25;97478.84;;;16.83;61.11
13765;BME280;6953;48.810;9.204;2023-04-01T13:08:08;97516.91;;;16.82;60.27
13765;BME280;6953;48.810;9.204;2023-04-01T13:11:02;97482.41;;;16.91;60.34
13765;BME280;6953;48.810;9.204;2023-04-01T13:16:24;97498.66;;;16.52;62.20
13765;BME280;6953;48.810;9.204;2023-04-01T13:21:54;97494.56;;;16.21;63.50
13765;BME280;6953;48.810;9.204;2023-04-01T13:24:56;97486.13;;;16.08;63.01
13765;BME280;6953;48.810;9.204;2023-04-01T13:27:33;97485.50;;;16.24;61.95
13765;BME280;6953;48.810;9.204;2023-04-01T13:30:39;97488.06;;;17.06;60.24
13765;BME280;6953;48.810;9.204;2023-04-01T13:39:15;97505.28;;;17.54;56.89
13765;BME280;6953;48.810;9.204;2023-04-01T13:45:02;97505.75;;;17.50;57.25
13765;BME280;6953;48.810;9.204;2023-04-01T13:50:17;97510.59;;;16.92;57.11
13765;BME280;6953;48.810;9.204;2023-04-01T13:58:29;97533.94;;;16.53;59.47
13765;BME280;6953;48.810;9.204;2023-04-01T14:01:06;97508.16;;;16.81;58.84
13765;BME280;6953;48.810;9.204;2023-04-01T14:20:02;97527.72;;;16.25;61.12
13765;BME280;6953;48.810;9.204;2023-04-01T14:22:38;97533.97;;;16.43;61.09
13765;BME280;6953;48.810;9.204;2023-04-01T14:25:30;97534.13;;;16.23;61.08
13765;BME280;6953;48.810;9.204;2023-04-01T14:33:46;97535.75;;;15.50;66.65
13765;BME280;6953;48.810;9.204;2023-04-01T14:36:38;97546.03;;;14.75;70.24
13765;BME280;6953;48.810;9.204;2023-04-01T14:50:21;97544.38;;;13.74;76.70
13765;BME280;6953;48.810;9.204;2023-04-01T14:53:11;97552.00;;;13.97;75.18
13765;BME280;6953;48.810;9.204;2023-04-01T14:58:20;97543.84;;;14.51;72.38
13765;BME280;6953;48.810;9.204;2023-04-01T15:08:51;97535.69;;;15.21;68.05
13765;BME280;6953;48.810;9.204;2023-04-01T15:12:09;97540.75;;;15.43;67.87
13765;BME280;6953;48.810;9.204;2023-04-01T15:23:36;97551.59;;;15.50;66.83
13765;BME280;6953;48.810;9.204;2023-04-01T15:29:59;97565.38;;;15.34;67.63
13765;BME280;6953;48.810;9.204;2023-04-01T15:32:01;97572.34;;;15.45;67.42
13765;BME280;6953;48.810;9.204;2023-04-01T15:34:35;97577.38;;;15.57;67.45
13765;BME280;6953;48.810;9.204;2023-04-01T15:39:58;97577.06;;;15.41;67.91
13765;BME280;6953;48.810;9.204;2023-04-01T15:45:12;97577.53;;;14.97;68.59
13765;BME280;6953;48.810;9.204;2023-04-01T15:47:45;97585.69;;;14.85;69.27
13765;BME280;6953;48.810;9.204;2023-04-01T15:50:46;97529.53;;;14.53;69.21
13765;BME280;6953;48.810;9.204;2023-04-01T15:53:18;97591.81;;;14.95;69.72
13765;BME280;6953;48.810;9.204;2023-04-01T15:58:43;97595.13;;;14.87;69.72
13765;BME280;6953;48.810;9.204;2023-04-01T16:04:14;97619.88;;;14.86;68.69
13765;BME280;6953;48.810;9.204;2023-04-01T16:09:43;97334.81;;;13.09;69.37
13765;BME280;6953;48.810;9.204;2023-04-01T16:12:19;97606.53;;;14.58;69.67
13765;BME280;6953;48.810;9.204;2023-04-01T16:14:55;97621.63;;;14.47;68.83
13765;BME280;6953;48.810;9.204;2023-04-01T16:20:22;97609.03;;;14.30;69.43
13765;BME280;6953;48.810;9.204;2023-04-01T16:28:48;97616.03;;;14.20;69.29
13765;BME280;6953;48.810;9.204;2023-04-01T16:31:44;97613.44;;;14.09;69.13
13765;BME280;6953;48.810;9.204;2023-04-01T16:34:43;97614.53;;;14.06;69.76
13765;BME280;6953;48.810;9.204;2023-04-01T16:37:15;97603.47;;;13.92;70.25
13765;BME280;6953;48.810;9.204;2023-04-01T16:39:50;97418.69;;;12.82;69.93
13765;BME280;6953;48.810;9.204;2023-04-01T16:42:46;97616.47;;;14.04;70.29
13765;BME280;6953;48.810;9.204;2023-04-01T16:45:24;97598.31;;;13.90;70.37
13765;BME280;6953;48.810;9.204;2023-04-01T16:48:05;97577.06;;;13.71;70.37
13765;BME280;6953;48.810;9.204;2023-04-01T16:51:04;97614.44;;;13.97;70.10
13765;BME280;6953;48.810;9.204;2023-04-01T16:54:07;97627.19;;;13.92;70.38
13765;BME280;6953;48.810;9.204;2023-04-01T16:56:45;97612.91;;;13.94;70.90
13765;BME280;6953;48.810;9.204;2023-04-01T16:59:18;97631.06;;;14.08;70.84
13765;BME280;6953;48.810;9.204;2023-04-01T17:02:02;97421.25;;;12.61;71.29
13765;BME280;6953;48.810;9.204;2023-04-01T17:04:47;97630.88;;;14.00;71.93
13765;BME280;6953;48.810;9.204;2023-04-01T17:15:31;97622.25;;;13.98;73.46
13765;BME280;6953;48.810;9.204;2023-04-01T17:18:27;97621.94;;;13.92;73.95
13765;BME280;6953;48.810;9.204;2023-04-01T17:21:07;97602.47;;;13.72;74.26
13765;BME280;6953;48.810;9.204;2023-04-01T17:24:10;97577.31;;;13.48;75.07
13765;BME280;6953;48.810;9.204;2023-04-01T17:32:17;97667.03;;;13.78;75.30
13765;BME280;6953;48.810;9.204;2023-04-01T17:35:12;97615.09;;;13.58;75.61
13765;BME280;6953;48.810;9.204;2023-04-01T17:38:05;97660.06;;;13.77;75.58
13765;BME280;6953;48.810;9.204;2023-04-01T17:40:59;97654.38;;;13.72;75.63
13765;BME280;6953;48.810;9.204;2023-04-01T17:45:57;97618.91;;;13.34;76.02
13765;BME280;6953;48.810;9.204;2023-04-01T17:48:43;97676.66;;;13.68;76.32
13765;BME280;6953;48.810;9.204;2023-04-01T17:51:28;97474.53;;;12.43;76.24
13765;BME280;6953;48.810;9.204;2023-04-01T17:54:10;97540.09;;;12.77;76.52
13765;BME280;6953;48.810;9.204;2023-04-01T17:56:54;97673.13;;;13.47;77.29
13765;BME280;6953;48.810;9.204;2023-04-01T17:59:36;97710.38;;;13.32;78.82
13765;BME280;6953;48.810;9.204;2023-04-01T18:05:01;97466.09;;;11.16;84.42
13765;BME280;6953;48.810;9.204;2023-04-01T18:07:33;97712.16;;;12.31;86.75
13765;BME280;6953;48.810;9.204;2023-04-01T18:16:08;97481.13;;;10.44;91.96
13765;BME280;6953;48.810;9.204;2023-04-01T18:18:46;97721.97;;;11.71;94.27
13765;BME280;6953;48.810;9.204;2023-04-01T18:24:03;97720.34;;;11.33;96.73
13765;BME280;6953;48.810;9.204;2023-04-01T18:26:38;97486.66;;;9.91;97.40
13765;BME280;6953;48.810;9.204;2023-04-01T18:31:37;97718.59;;;11.34;99.08
13765;BME280;6953;48.810;9.204;2023-04-01T18:34:30;97736.63;;;11.38;99.70
13765;BME280;6953;48.810;9.204;2023-04-01T18:37:18;97722.00;;;11.11;100.00
13765;BME280;6953;48.810;9.204;2023-04-01T18:39:52;97481.09;;;9.83;100.00
13765;BME280;6953;48.810;9.204;2023-04-01T18:42:46;97740.97;;;11.27;100.00
13765;BME280;6953;48.810;9.204;2023-04-01T18:52:50;97458.31;;;9.09;100.00
13765;BME280;6953;48.810;9.204;2023-04-01T18:55:49;97502.94;;;9.20;100.00
13765;BME280;6953;48.810;9.204;2023-04-01T19:01:26;97512.38;;;8.96;100.00
13765;BME280;6953;48.810;9.204;2023-04-01T19:04:03;97766.69;;;10.34;100.00
13765;BME280;6953;48.810;9.204;2023-04-01T19:14:57;97776.28;;;9.95;100.00
13765;BME280;6953;48.810;9.204;2023-04-01T19:20:36;97585.31;;;8.74;100.00
13765;BME280;6953;48.810;9.204;2023-04-01T19:25:54;97774.75;;;9.79;100.00
13765;BME280;6953;48.810;9.204;2023-04-01T19:30:58;97776.94;;;9.72;100.00
13765;BME280;6953;48.810;9.204;2023-04-01T19:33:58;97761.03;;;9.61;100.00
13765;BME280;6953;48.810;9.204;2023-04-01T19:37:05;97780.81;;;9.79;100.00
13765;BME280;6953;48.810;9.204;2023-04-01T19:39:44;97775.00;;;9.88;100.00
13765;BME280;6953;48.810;9.204;2023-04-01T19:45:26;97779.66;;;9.97;100.00
13765;BME280;6953;48.810;9.204;2023-04-01T19:48:03;97780.03;;;9.91;100.00
13765;BME280;6953;48.810;9.204;2023-04-01T19:51:02;97777.88;;;9.98;100.00
13765;BME280;6953;48.810;9.204;2023-04-01T19:53:33;97692.41;;;9.44;100.00
13765;BME280;6953;48.810;9.204;2023-04-01T19:56:20;97788.44;;;10.10;100.00
13765;BME280;6953;48.810;9.204;2023-04-01T19:59:14;97746.56;;;9.82;100.00
13765;BME280;6953;48.810;9.204;2023-04-01T20:01:59;97761.91;;;9.88;99.51
13765;BME280;6953;48.810;9.204;2023-04-01T20:04:33;97710.53;;;9.73;99.16
13765;BME280;6953;48.810;9.204;2023-04-01T20:07:41;97593.16;;;9.01;98.65
13765;BME280;6953;48.810;9.204;2023-04-01T20:10:22;97803.13;;;10.76;96.72
13765;BME280;6953;48.810;9.204;2023-04-01T20:15:32;97738.41;;;10.64;95.52
13765;BME280;6953;48.810;9.204;2023-04-01T20:18:01;97741.78;;;10.79;94.67
13765;BME280;6953;48.810;9.204;2023-04-01T20:20:29;97737.03;;;10.84;94.00
13765;BME280;6953;48.810;9.204;2023-04-01T20:25:52;97581.94;;;10.03;92.56
13765;BME280;6953;48.810;9.204;2023-04-01T20:34:26;97825.06;;;11.62;91.47
13765;BME280;6953;48.810;9.204;2023-04-01T20:50:41;97817.63;;;11.69;89.99
13765;BME280;6953;48.810;9.204;2023-04-01T20:56:01;97641.03;;;10.69;89.48
13765;BME280;6953;48.810;9.204;2023-04-01T21:01:13;97617.44;;;10.44;89.11
13765;BME280;6953;48.810;9.204;2023-04-01T21:09:29;97840.06;;;11.73;89.48
13765;BME280;6953;48.810;9.204;2023-04-01T21:12:22;97840.06;;;11.73;90.06
13765;BME280;6953;48.810;9.204;2023-04-01T21:15:02;97876.25;;;11.69;89.94
13765;BME280;6953;48.810;9.204;2023-04-01T21:20:34;97593.66;;;10.22;89.52
13765;BME280;6953;48.810;9.204;2023-04-01T21:26:02;97855.84;;;11.73;89.46
13765;BME280;6953;48.810;9.204;2023-04-01T21:28:58;97856.16;;;11.68;89.82
13765;BME280;6953;48.810;9.204;2023-04-01T21:31:41;97862.50;;;11.66;89.97
13765;BME280;6953;48.810;9.204;2023-04-01T21:42:44;97875.00;;;11.50;91.13
13765;BME280;6953;48.810;9.204;2023-04-01T21:45:46;97843.78;;;11.33;91.20
13765;BME280;6953;48.810;9.204;2023-04-01T22:02:09;97895.59;;;11.31;91.82